AirNav   Air Wisconsin Airman Trainee
 
 330 users online  

CL35 Warner Springs Gliderport
Warner Springs, California, USA

GOING TO WARNER SPRINGS?


FAA INFORMATION EFFECTIVE 25 APRIL 2019

Location

FAA Identifier: CL35
Lat/Long: 33-17-04.2100N / 116-40-10.7650W
33-17.070167N / 116-40.179417W
33.2845028 / -116.6696569
(estimated)
Elevation: 2880 ft. / 878 m (estimated)
Variation: 13E (1985)
From city: 2 miles E of WARNER SPRINGS, CA
Time zone: UTC -7 (UTC -8 during Standard Time)
Zip code: 92086

Gliderport Operations

Gliderport use: Private use. Permission required prior to landing
Activation date: 10/1984
Control tower: no
ARTCC: LOS ANGELES CENTER
FSS: SAN DIEGO FLIGHT SERVICE STATION
Attendance: 0900-1700
Wind indicator: yes
Segmented circle: yes
Landing fee: yes

Gliderport Communications

UNICOM: 122.8
WX AWOS-3P at L08 (18 nm E): 126.575 (760-767-3308)
WX ASOS at RNM (19 nm SW): 132.025 (760-789-0736)

Nearby radio navigation aids

VOR radial/distance  VOR name  Freq  Var
JLIr319/9.6JULIAN VORTAC114.0015E
TRMr218/32.8THERMAL VORTAC116.2013E
PSPr186/37.1PALM SPRINGS VORTAC115.5013E
OCNr071/37.6OCEANSIDE VORTAC115.3015E
HDFr125/(39.2)HOMELAND VOR113.4014E

Gliderport Services

Runway Information

Runway 8/26

Dimensions: 3500 x 70 ft. / 1067 x 21 m
Surface: asphalt
RUNWAY 8  RUNWAY 26
Latitude: 33-17.060333N33-17.080000N
Longitude: 116-40.522667W116-39.836167W
Elevation: 2873.0 ft.2914.0 ft.
Traffic pattern: leftleft
Obstructions: none200 ft. hill, 5200 ft. from runway

Gliderport Ownership and Management from official FAA records

Ownership: Privately-owned
Owner: WARNER SPRINGS RANCH RESORT, LLC
31930 HWY 79
WARNER SPRINGS, CA 92086
Phone 760-782-4200
SKY SAILING 31930 HWY 79.
Manager: BRET WILLAT
SKY SAILING 31930 HWY 79
WARNER SPRINGS, CA 92086
Phone 760-782-0404
LEASEE.

Gliderport Operational Statistics

Aircraft based on the field: 80
Single engine airplanes: 10
Gliders airplanes: 70
    

Instrument Procedures

There are no published instrument procedures at CL35.

Some nearby airports with instrument procedures:

L08 - Borrego Valley Airport (18 nm E)
KRNM - Ramona Airport (19 nm SW)
F70 - French Valley Airport (29 nm NW)
L18 - Fallbrook Community Airpark (29 nm W)
KSEE - Gillespie Field Airport (31 nm SW)
 
Loc | Ops | Rwys | IFR | FBO | Links
Com | Nav | Svcs | Stats | Notes
Area around CL35 (Warner Springs Gliderport)
 
Road maps at: MapQuest Bing Google
 
Aerial photo
WARNING: Photo may not be current or correct
Aerial photo of CL35 (Warner Springs Gliderport)
Photo by Steve Lupinacci
Photo taken 27-May-2008

Do you have a better or more recent aerial photo of Warner Springs Gliderport that you would like to share? If so, please send us your photo.

 
Sectional chart

 
Airport distance calculator
Flying to Warner Springs Gliderport? Find the distance to fly.

From to CL35

Sunrise and sunset
Times for 20-May-2019
 Local
(UTC-7)
 Zulu
(UTC)
Morning civil twilight05:1712:17
Sunrise05:4412:44
Sunset19:4202:42
Evening civil twilight20:1003:10

Current date and time
Zulu (UTC)  20-May-2019 09:53:50
Local (UTC-7)  20-May-2019 02:53:50
 
METAR
KL08 
18nm E 
200935Z AUTO 31007KT 10SM FEW030 SCT044 SCT050 15/03 A2978 RMK AO2
KRNM 
20nm SW 
200853Z AUTO 27012KT 10SM SCT012 SCT022 BKN029 12/09 A2989 RMK AO2 RAB26E35 SLP114 P0000 60002 T01170089 58010
KF70 
29nm NW 
200935Z AUTO 20007KT 10SM BKN029 BKN034 BKN046 11/09 A2987 RMK AO1
KL18 
29nm W 
200935Z AUTO 22005KT 10SM BKN021 BKN055 BKN065 11/09 A2989 RMK AO2
KSEE 
32nm SW 
200935Z AUTO 00000KT 10SM 13/11 A2990 RMK AO2
KCRQ 
32nm W 
200930Z AUTO 28006KT 10SM BKN023 BKN028 OVC037 15/10 A2988 RMK AO2 T01500100
KPSP 
33nm N 
200853Z AUTO 13010KT 10SM CLR 17/03 A2975 RMK AO2 SLP071 T01670033 55003
KNFG 
33nm W 
200855Z AUTO 26006KT 10SM SCT028 SCT042 BKN055 13/11 A2988 RMK AO2 SLP118 T01330106 56014 $
KNKX 
34nm SW 
200855Z 29008KT 10SM SCT024 BKN034 14/10 A2990 RMK AO2 SLP121 60002 T01440100 56010 $
KOKB 
34nm W 
200852Z AUTO 26009G17KT 10SM SCT024 14/10 A2988 RMK AO2 SLP118 T01390100 58008
TAF
KCRQ 
32nm W 
200753Z 2008/2106 27007KT P6SM VCSH SCT020 BKN035 FM201300 25008G16KT P6SM BKN025 FM210300 26007KT P6SM BKN015
KTRM 
33nm NE 
200520Z 2006/2106 32015G26KT P6SM FEW250 FM201400 30010G15KT P6SM FEW250 FM201900 33018G25KT P6SM FEW250 AMD NOT SKED
KPSP 
33nm N 
200754Z 2008/2106 08011KT P6SM SCT250 FM200900 33010G20KT P6SM SKC FM201600 34018G28KT P6SM SKC
KNFG 
33nm W 
2003/2103 VRB05KT 9999 SCT025 BKN040 QNH2985INS TEMPO 2003/2009 BKN025 FM201530 24009KT 9999 BKN040 QNH2987INS TEMPO 2016/2022 24009G16KT BECMG 2100/2102 VRB05KT 9999 BKN025 QNH2991INS T12/2010Z T17/2021Z
KNKX 
34nm SW 
2003/2103 29010KT 9999 BKN025 QNH2984INS TEMPO 2003/2009 27010G18KT SCT025 FM201330 26012G22KT 9999 SCT025 BKN040 QNH2986INS BECMG 2023/2101 26006KT 9999 BKN025 QNH2992INS T13/2010Z T18/2021Z
NOTAMs
Click for the latest NOTAMs
NOTAMs are issued by the DoD/FAA and will open in a separate window not controlled by AirNav.

 

 
 

Would you like to see your business listed on this page?

 If your business provides an interesting product or service to pilots, flight crews, aircraft, or users of the Warner Springs Gliderport, you should consider listing it here.  To start the listing process, click on the button below
 
Add a business
 

Other Pages about Warner Springs Gliderport

www.agcsc.org/warner_springs_info.html
 
Update a link
 
Copyright © AirNav, LLC. All rights reserved. Privacy Policy  Contact